»·PEaware :: N1SC KGYR-KTUS

N1SC :: KGYR-KTUS

FLIGHT INFORMATION

Flight Status: Arrived
Operator: Privately registered:
United States
More flights under this callsign
Pilot: Anonymous 10181 (10181)
Aircraft: PIPER PA-24 COMMANCHE
(PA24)
More flights by this aircraft type
Origin: KGYR Phoenix Goodyear
United States
Destination: KTUS Tucson Intl
United States
More flights between these airports :: More routes between these airports
Route: TFD DINGO5
File this flight plan on PilotEdge
Remarks: Happy Saturday!
Altitude:
(Current/Filed)
9,000ft
Speed:
(Current/Filed)
160kts
Departed: 25-Nov-23 06:33 PM
Arrived: 25-Nov-23 07:20 PM
Distance/Time
Traveled:
107nm/0:47
Distance/Time
To Go:
Arrived

Flight Plot

Page will automatically refresh every two minutes.

Flight plan parsing failed; only flown route is shown


Map Options




Map Legend


Flown Route
Filed Route
Departure Airport
Arrival Airport
Navaid (VOR, NDB)
Fix

Horizontal Profiles

Position Reports

Time Latitude Longitude Heading Altitude Ground
Speed
25-Nov-23 18:00 33.426675 -112.367434 63 960ft 0kts
25-Nov-23 18:01 33.426675 -112.367434 63 960ft 0kts
25-Nov-23 18:02 33.426675 -112.367434 63 960ft 0kts
25-Nov-23 18:03 33.426675 -112.367434 63 960ft 0kts
25-Nov-23 18:04 33.426675 -112.367434 63 960ft 0kts
25-Nov-23 18:05 33.426675 -112.367434 63 960ft 0kts
25-Nov-23 18:06 33.426675 -112.367434 63 960ft 0kts
25-Nov-23 18:07 33.426675 -112.367434 63 960ft 0kts
25-Nov-23 18:08 33.426675 -112.367434 63 960ft 0kts
25-Nov-23 18:09 33.426675 -112.367434 63 960ft 0kts
25-Nov-23 18:10 33.426675 -112.367434 63 960ft 0kts
25-Nov-23 18:11 33.426675 -112.367434 63 960ft 0kts
25-Nov-23 18:12 33.426675 -112.367434 63 960ft 0kts
25-Nov-23 18:13 33.426675 -112.367434 63 960ft 0kts
25-Nov-23 18:14 33.426675 -112.367434 63 960ft 0kts
25-Nov-23 18:15 33.426675 -112.367433 63 960ft 0kts
25-Nov-23 18:16 33.426675 -112.367433 63 960ft 0kts
25-Nov-23 18:17 33.426675 -112.367433 63 960ft 0kts
25-Nov-23 18:18 33.426675 -112.367433 63 960ft 0kts
25-Nov-23 18:19 33.426675 -112.367433 63 960ft 0kts
25-Nov-23 18:20 33.426675 -112.367433 63 960ft 0kts
25-Nov-23 18:21 33.426675 -112.367433 63 960ft 0kts
25-Nov-23 18:22 33.426675 -112.367433 63 960ft 0kts
25-Nov-23 18:23 33.426675 -112.367433 63 960ft 0kts
25-Nov-23 18:24 33.426675 -112.367433 63 960ft 0kts
25-Nov-23 18:25 33.426675 -112.367433 63 960ft 0kts
25-Nov-23 18:26 33.426675 -112.367433 63 960ft 0kts
25-Nov-23 18:27 33.426685 -112.367396 78 960ft 2kts
25-Nov-23 18:28 33.428296 -112.367995 42 961ft 17kts
25-Nov-23 18:29 33.431965 -112.365566 35 975ft 11kts
25-Nov-23 18:30 33.432573 -112.365440 309 975ft 0kts
25-Nov-23 18:31 33.432996 -112.366037 310 976ft 10kts
25-Nov-23 18:32 33.427614 -112.371347 219 1006ft 90kts
25-Nov-23 18:33 33.406053 -112.382250 158 2280ft 90kts
25-Nov-23 18:34 33.386440 -112.362064 167 3610ft 95kts
25-Nov-23 18:35 33.363394 -112.347065 153 4717ft 93kts
25-Nov-23 18:36 33.339266 -112.334642 167 5724ft 96kts
25-Nov-23 18:37 33.312719 -112.328592 167 6674ft 98kts
25-Nov-23 18:38 33.286818 -112.317316 151 7605ft 100kts
25-Nov-23 18:39 33.263523 -112.296788 136 8534ft 105kts
25-Nov-23 18:40 33.242646 -112.271010 133 9440ft 109kts
25-Nov-23 18:41 33.212397 -112.237730 141 9006ft 166kts
25-Nov-23 18:42 33.177366 -112.201672 138 8989ft 165kts
25-Nov-23 18:43 33.143159 -112.166061 140 8966ft 163kts
25-Nov-23 18:44 33.108649 -112.131120 141 8973ft 163kts
25-Nov-23 18:45 33.073479 -112.096319 141 8970ft 165kts
25-Nov-23 18:46 33.038237 -112.061066 140 8971ft 165kts
25-Nov-23 18:47 33.002990 -112.025779 141 8971ft 165kts
25-Nov-23 18:48 32.967734 -111.990465 141 8971ft 165kts
25-Nov-23 18:49 32.932832 -111.954713 135 8972ft 165kts
25-Nov-23 18:50 32.897870 -111.919447 142 8969ft 166kts
25-Nov-23 18:51 32.860143 -111.888240 148 8967ft 165kts
25-Nov-23 18:52 32.821617 -111.858719 142 8970ft 164kts
25-Nov-23 18:53 32.784707 -111.827239 145 8971ft 163kts
25-Nov-23 18:54 32.747517 -111.795897 145 8973ft 164kts
25-Nov-23 18:55 32.709411 -111.766024 147 8974ft 163kts
25-Nov-23 18:56 32.671286 -111.736715 146 8976ft 163kts
25-Nov-23 18:57 32.633425 -111.706775 146 8978ft 164kts
25-Nov-23 18:58 32.595588 -111.676838 146 8987ft 164kts
25-Nov-23 18:59 32.557603 -111.646647 146 8997ft 163kts
25-Nov-23 19:00 32.525588 -111.608888 125 9004ft 163kts
25-Nov-23 19:01 32.501271 -111.563340 119 9015ft 163kts
25-Nov-23 19:02 32.478026 -111.517133 121 9026ft 163kts
25-Nov-23 19:03 32.452546 -111.473143 125 9018ft 154kts
25-Nov-23 19:04 32.426231 -111.432049 127 8245ft 160kts
25-Nov-23 19:05 32.399013 -111.390291 126 7386ft 160kts
25-Nov-23 19:06 32.372668 -111.350019 128 6748ft 147kts
25-Nov-23 19:07 32.353328 -111.309738 82 5727ft 148kts
25-Nov-23 19:08 32.357782 -111.269430 80 5875ft 116kts
25-Nov-23 19:09 32.362422 -111.230321 80 6228ft 143kts
25-Nov-23 19:10 32.336522 -111.195521 141 6174ft 147kts
25-Nov-23 19:11 32.306439 -111.160710 138 6051ft 149kts
25-Nov-23 19:12 32.277269 -111.127017 130 6115ft 146kts
25-Nov-23 19:13 32.247381 -111.093510 136 6077ft 150kts
25-Nov-23 19:14 32.215945 -111.056737 131 5496ft 156kts
25-Nov-23 19:15 32.187225 -111.024548 133 4686ft 138kts
25-Nov-23 19:16 32.161638 -110.992652 132 3907ft 127kts
25-Nov-23 19:17 32.140002 -110.967450 135 3134ft 95kts
25-Nov-23 19:18 32.123322 -110.947809 135 2585ft 70kts
25-Nov-23 19:19 32.118352 -110.940969 2 2592ft 11kts

Navigation Log

Ident Type
Flight plan parsing failed, navigation log unavailable